sensor_id;sensor_type;location;lat;lon;timestamp;P1;durP1;ratioP1;P2;durP2;ratioP2
77204;SDS011;67992;46.618;18.850;2023-03-01T00:01:07;0.00;;;0.00;;
77204;SDS011;67992;46.618;18.850;2023-03-01T00:03:38;0.00;;;0.00;;
77204;SDS011;67992;46.618;18.850;2023-03-01T00:06:04;0.00;;;0.00;;
77204;SDS011;67992;46.618;18.850;2023-03-01T00:08:31;0.05;;;0.05;;
77204;SDS011;67992;46.618;18.850;2023-03-01T00:11:14;0.00;;;0.00;;
77204;SDS011;67992;46.618;18.850;2023-03-01T00:13:45;0.00;;;0.00;;
77204;SDS011;67992;46.618;18.850;2023-03-01T00:16:14;0.00;;;0.00;;
77204;SDS011;67992;46.618;18.850;2023-03-01T00:18:42;0.00;;;0.00;;
77204;SDS011;67992;46.618;18.850;2023-03-01T00:21:08;0.13;;;0.13;;
77204;SDS011;67992;46.618;18.850;2023-03-01T00:23:35;0.00;;;0.00;;
77204;SDS011;67992;46.618;18.850;2023-03-01T00:26:02;0.15;;;0.15;;
77204;SDS011;67992;46.618;18.850;2023-03-01T00:28:31;0.00;;;0.00;;
77204;SDS011;67992;46.618;18.850;2023-03-01T00:31:02;0.00;;;0.00;;
77204;SDS011;67992;46.618;18.850;2023-03-01T00:33:31;0.08;;;0.00;;
77204;SDS011;67992;46.618;18.850;2023-03-01T00:36:00;0.00;;;0.00;;
77204;SDS011;67992;46.618;18.850;2023-03-01T00:38:26;0.10;;;0.10;;
77204;SDS011;67992;46.618;18.850;2023-03-01T00:40:52;0.00;;;0.00;;
77204;SDS011;67992;46.618;18.850;2023-03-01T00:43:17;0.00;;;0.00;;
77204;SDS011;67992;46.618;18.850;2023-03-01T00:45:44;0.00;;;0.00;;
77204;SDS011;67992;46.618;18.850;2023-03-01T00:48:09;0.05;;;0.00;;
77204;SDS011;67992;46.618;18.850;2023-03-01T00:50:35;0.03;;;0.03;;
77204;SDS011;67992;46.618;18.850;2023-03-01T00:53:00;0.00;;;0.00;;
77204;SDS011;67992;46.618;18.850;2023-03-01T00:55:26;0.10;;;0.10;;
77204;SDS011;67992;46.618;18.850;2023-03-01T00:57:52;0.08;;;0.08;;
77204;SDS011;67992;46.618;18.850;2023-03-01T01:00:18;0.00;;;0.00;;
77204;SDS011;67992;46.618;18.850;2023-03-01T01:02:44;0.00;;;0.00;;
77204;SDS011;67992;46.618;18.850;2023-03-01T01:05:10;0.00;;;0.00;;
77204;SDS011;67992;46.618;18.850;2023-03-01T01:07:36;0.00;;;0.00;;
77204;SDS011;67992;46.618;18.850;2023-03-01T01:10:02;0.00;;;0.00;;
77204;SDS011;67992;46.618;18.850;2023-03-01T01:12:28;0.30;;;0.30;;
77204;SDS011;67992;46.618;18.850;2023-03-01T01:14:53;0.00;;;0.00;;
77204;SDS011;67992;46.618;18.850;2023-03-01T01:17:19;0.00;;;0.00;;
77204;SDS011;67992;46.618;18.850;2023-03-01T01:19:45;0.13;;;0.13;;
77204;SDS011;67992;46.618;18.850;2023-03-01T01:22:10;0.10;;;0.10;;
77204;SDS011;67992;46.618;18.850;2023-03-01T01:24:36;0.00;;;0.00;;
77204;SDS011;67992;46.618;18.850;2023-03-01T01:27:01;0.00;;;0.00;;
77204;SDS011;67992;46.618;18.850;2023-03-01T01:29:27;0.10;;;0.10;;
77204;SDS011;67992;46.618;18.850;2023-03-01T01:31:52;0.00;;;0.00;;
77204;SDS011;67992;46.618;18.850;2023-03-01T01:34:19;0.00;;;0.00;;
77204;SDS011;67992;46.618;18.850;2023-03-01T01:36:49;0.00;;;0.00;;
77204;SDS011;67992;46.618;18.850;2023-03-01T01:39:19;0.10;;;0.10;;
77204;SDS011;67992;46.618;18.850;2023-03-01T01:41:46;0.00;;;0.00;;
77204;SDS011;67992;46.618;18.850;2023-03-01T01:44:18;0.20;;;0.10;;
77204;SDS011;67992;46.618;18.850;2023-03-01T01:46:50;0.00;;;0.00;;
77204;SDS011;67992;46.618;18.850;2023-03-01T01:51:55;0.00;;;0.00;;
77204;SDS011;67992;46.618;18.850;2023-03-01T01:55:10;0.00;;;0.00;;
77204;SDS011;67992;46.618;18.850;2023-03-01T01:57:17;0.00;;;0.00;;
77204;SDS011;67992;46.618;18.850;2023-03-01T01:59:48;0.00;;;0.00;;
77204;SDS011;67992;46.618;18.850;2023-03-01T02:02:19;0.00;;;0.00;;
77204;SDS011;67992;46.618;18.850;2023-03-01T02:04:46;0.00;;;0.00;;
77204;SDS011;67992;46.618;18.850;2023-03-01T02:07:19;0.10;;;0.10;;
77204;SDS011;67992;46.618;18.850;2023-03-01T02:09:50;0.00;;;0.00;;
77204;SDS011;67992;46.618;18.850;2023-03-01T02:12:19;0.00;;;0.00;;
77204;SDS011;67992;46.618;18.850;2023-03-01T02:14:47;0.10;;;0.10;;
77204;SDS011;67992;46.618;18.850;2023-03-01T02:17:14;0.00;;;0.00;;
77204;SDS011;67992;46.618;18.850;2023-03-01T02:22:17;0.00;;;0.00;;
77204;SDS011;67992;46.618;18.850;2023-03-01T02:27:21;0.00;;;0.00;;
77204;SDS011;67992;46.618;18.850;2023-03-01T02:29:51;0.40;;;0.40;;
77204;SDS011;67992;46.618;18.850;2023-03-01T02:32:17;0.10;;;0.10;;
77204;SDS011;67992;46.618;18.850;2023-03-01T02:34:53;0.05;;;0.05;;
77204;SDS011;67992;46.618;18.850;2023-03-01T02:37:20;0.00;;;0.00;;
77204;SDS011;67992;46.618;18.850;2023-03-01T02:39:51;0.10;;;0.10;;
77204;SDS011;67992;46.618;18.850;2023-03-01T02:42:24;0.00;;;0.00;;
77204;SDS011;67992;46.618;18.850;2023-03-01T02:44:55;0.00;;;0.00;;
77204;SDS011;67992;46.618;18.850;2023-03-01T02:47:21;0.00;;;0.00;;
77204;SDS011;67992;46.618;18.850;2023-03-01T02:49:47;0.10;;;0.10;;
77204;SDS011;67992;46.618;18.850;2023-03-01T02:55:12;0.00;;;0.00;;
77204;SDS011;67992;46.618;18.850;2023-03-01T02:57:43;0.00;;;0.00;;
77204;SDS011;67992;46.618;18.850;2023-03-01T03:00:14;0.00;;;0.00;;
77204;SDS011;67992;46.618;18.850;2023-03-01T03:02:51;0.00;;;0.00;;
77204;SDS011;67992;46.618;18.850;2023-03-01T03:05:20;0.10;;;0.10;;
77204;SDS011;67992;46.618;18.850;2023-03-01T03:07:56;0.00;;;0.00;;
77204;SDS011;67992;46.618;18.850;2023-03-01T03:10:25;0.10;;;0.00;;
77204;SDS011;67992;46.618;18.850;2023-03-01T03:12:59;0.00;;;0.00;;
77204;SDS011;67992;46.618;18.850;2023-03-01T03:15:26;0.10;;;0.10;;
77204;SDS011;67992;46.618;18.850;2023-03-01T03:17:53;0.10;;;0.10;;
77204;SDS011;67992;46.618;18.850;2023-03-01T03:20:20;0.00;;;0.00;;
77204;SDS011;67992;46.618;18.850;2023-03-01T03:22:49;0.00;;;0.00;;
77204;SDS011;67992;46.618;18.850;2023-03-01T03:25:17;0.10;;;0.10;;
77204;SDS011;67992;46.618;18.850;2023-03-01T03:27:44;0.05;;;0.05;;
77204;SDS011;67992;46.618;18.850;2023-03-01T03:30:12;0.00;;;0.00;;
77204;SDS011;67992;46.618;18.850;2023-03-01T03:32:40;0.00;;;0.00;;
77204;SDS011;67992;46.618;18.850;2023-03-01T03:35:08;0.00;;;0.00;;
77204;SDS011;67992;46.618;18.850;2023-03-01T03:37:38;0.00;;;0.00;;
77204;SDS011;67992;46.618;18.850;2023-03-01T03:40:24;0.10;;;0.10;;
77204;SDS011;67992;46.618;18.850;2023-03-01T03:42:50;0.10;;;0.10;;
77204;SDS011;67992;46.618;18.850;2023-03-01T03:45:16;0.00;;;0.00;;
77204;SDS011;67992;46.618;18.850;2023-03-01T03:47:42;0.10;;;0.10;;
77204;SDS011;67992;46.618;18.850;2023-03-01T03:50:09;0.10;;;0.10;;
77204;SDS011;67992;46.618;18.850;2023-03-01T03:52:36;0.10;;;0.10;;
77204;SDS011;67992;46.618;18.850;2023-03-01T03:55:02;0.10;;;0.10;;
77204;SDS011;67992;46.618;18.850;2023-03-01T03:57:27;0.10;;;0.10;;
77204;SDS011;67992;46.618;18.850;2023-03-01T03:59:53;0.10;;;0.10;;
77204;SDS011;67992;46.618;18.850;2023-03-01T04:02:19;0.00;;;0.00;;
77204;SDS011;67992;46.618;18.850;2023-03-01T04:04:47;0.00;;;0.00;;
77204;SDS011;67992;46.618;18.850;2023-03-01T04:07:15;0.00;;;0.00;;
77204;SDS011;67992;46.618;18.850;2023-03-01T04:09:42;0.15;;;0.15;;
77204;SDS011;67992;46.618;18.850;2023-03-01T04:12:08;0.10;;;0.10;;
77204;SDS011;67992;46.618;18.850;2023-03-01T04:14:34;0.03;;;0.03;;
77204;SDS011;67992;46.618;18.850;2023-03-01T04:17:00;0.00;;;0.00;;
77204;SDS011;67992;46.618;18.850;2023-03-01T04:19:26;0.00;;;0.00;;
77204;SDS011;67992;46.618;18.850;2023-03-01T04:21:52;0.17;;;0.17;;
77204;SDS011;67992;46.618;18.850;2023-03-01T04:24:18;0.00;;;0.00;;
77204;SDS011;67992;46.618;18.850;2023-03-01T04:26:44;0.10;;;0.10;;
77204;SDS011;67992;46.618;18.850;2023-03-01T04:29:09;0.00;;;0.00;;
77204;SDS011;67992;46.618;18.850;2023-03-01T04:31:35;0.00;;;0.00;;
77204;SDS011;67992;46.618;18.850;2023-03-01T04:34:01;0.10;;;0.10;;
77204;SDS011;67992;46.618;18.850;2023-03-01T04:36:28;0.00;;;0.00;;
77204;SDS011;67992;46.618;18.850;2023-03-01T04:38:54;0.08;;;0.08;;
77204;SDS011;67992;46.618;18.850;2023-03-01T04:41:21;0.20;;;0.20;;
77204;SDS011;67992;46.618;18.850;2023-03-01T04:43:49;0.00;;;0.00;;
77204;SDS011;67992;46.618;18.850;2023-03-01T04:46:16;0.00;;;0.00;;
77204;SDS011;67992;46.618;18.850;2023-03-01T04:48:44;0.00;;;0.00;;
77204;SDS011;67992;46.618;18.850;2023-03-01T04:51:10;0.10;;;0.10;;
77204;SDS011;67992;46.618;18.850;2023-03-01T04:53:40;0.00;;;0.00;;
77204;SDS011;67992;46.618;18.850;2023-03-01T04:56:06;0.10;;;0.10;;
77204;SDS011;67992;46.618;18.850;2023-03-01T04:58:32;0.00;;;0.00;;
77204;SDS011;67992;46.618;18.850;2023-03-01T05:00:58;0.10;;;0.10;;
77204;SDS011;67992;46.618;18.850;2023-03-01T05:03:23;0.15;;;0.15;;
77204;SDS011;67992;46.618;18.850;2023-03-01T05:05:51;0.10;;;0.10;;
77204;SDS011;67992;46.618;18.850;2023-03-01T05:08:17;0.10;;;0.10;;
77204;SDS011;67992;46.618;18.850;2023-03-01T05:10:44;0.08;;;0.08;;
77204;SDS011;67992;46.618;18.850;2023-03-01T05:13:12;0.10;;;0.10;;
77204;SDS011;67992;46.618;18.850;2023-03-01T05:15:38;0.10;;;0.10;;
77204;SDS011;67992;46.618;18.850;2023-03-01T05:18:04;0.00;;;0.00;;
77204;SDS011;67992;46.618;18.850;2023-03-01T05:20:36;0.00;;;0.00;;
77204;SDS011;67992;46.618;18.850;2023-03-01T05:23:03;0.10;;;0.10;;
77204;SDS011;67992;46.618;18.850;2023-03-01T05:25:30;0.10;;;0.10;;
77204;SDS011;67992;46.618;18.850;2023-03-01T05:27:59;0.00;;;0.00;;
77204;SDS011;67992;46.618;18.850;2023-03-01T05:30:30;0.10;;;0.10;;
77204;SDS011;67992;46.618;18.850;2023-03-01T05:32:57;0.05;;;0.05;;
77204;SDS011;67992;46.618;18.850;2023-03-01T05:35:24;0.00;;;0.00;;
77204;SDS011;67992;46.618;18.850;2023-03-01T05:37:50;0.10;;;0.10;;
77204;SDS011;67992;46.618;18.850;2023-03-01T05:40:18;0.10;;;0.10;;
77204;SDS011;67992;46.618;18.850;2023-03-01T05:42:46;0.00;;;0.00;;
77204;SDS011;67992;46.618;18.850;2023-03-01T05:45:14;0.00;;;0.00;;
77204;SDS011;67992;46.618;18.850;2023-03-01T05:47:41;0.10;;;0.10;;
77204;SDS011;67992;46.618;18.850;2023-03-01T05:52:38;0.10;;;0.10;;
77204;SDS011;67992;46.618;18.850;2023-03-01T05:55:04;0.05;;;0.05;;
77204;SDS011;67992;46.618;18.850;2023-03-01T05:57:30;0.10;;;0.10;;
77204;SDS011;67992;46.618;18.850;2023-03-01T05:59:55;0.00;;;0.00;;
77204;SDS011;67992;46.618;18.850;2023-03-01T06:02:21;0.10;;;0.10;;
77204;SDS011;67992;46.618;18.850;2023-03-01T06:04:46;0.15;;;0.15;;
77204;SDS011;67992;46.618;18.850;2023-03-01T06:07:14;0.00;;;0.00;;
77204;SDS011;67992;46.618;18.850;2023-03-01T06:09:39;0.30;;;0.30;;
77204;SDS011;67992;46.618;18.850;2023-03-01T06:12:05;0.00;;;0.00;;
77204;SDS011;67992;46.618;18.850;2023-03-01T06:14:31;0.03;;;0.03;;
77204;SDS011;67992;46.618;18.850;2023-03-01T06:16:57;0.00;;;0.00;;
77204;SDS011;67992;46.618;18.850;2023-03-01T06:19:23;0.00;;;0.00;;
77204;SDS011;67992;46.618;18.850;2023-03-01T06:21:48;0.10;;;0.10;;
77204;SDS011;67992;46.618;18.850;2023-03-01T06:24:14;0.00;;;0.00;;
77204;SDS011;67992;46.618;18.850;2023-03-01T06:26:40;0.10;;;0.10;;
77204;SDS011;67992;46.618;18.850;2023-03-01T06:29:05;0.03;;;0.03;;
77204;SDS011;67992;46.618;18.850;2023-03-01T06:31:31;0.00;;;0.00;;
77204;SDS011;67992;46.618;18.850;2023-03-01T06:33:56;0.05;;;0.05;;
77204;SDS011;67992;46.618;18.850;2023-03-01T06:36:22;0.10;;;0.10;;
77204;SDS011;67992;46.618;18.850;2023-03-01T06:38:48;0.00;;;0.00;;
77204;SDS011;67992;46.618;18.850;2023-03-01T06:41:13;0.10;;;0.10;;
77204;SDS011;67992;46.618;18.850;2023-03-01T06:43:39;0.25;;;0.25;;
77204;SDS011;67992;46.618;18.850;2023-03-01T06:46:05;0.28;;;0.28;;
77204;SDS011;67992;46.618;18.850;2023-03-01T06:48:32;0.30;;;0.30;;
77204;SDS011;67992;46.618;18.850;2023-03-01T06:50:59;0.22;;;0.22;;
77204;SDS011;67992;46.618;18.850;2023-03-01T06:53:28;0.13;;;0.13;;
77204;SDS011;67992;46.618;18.850;2023-03-01T06:55:57;0.13;;;0.13;;
77204;SDS011;67992;46.618;18.850;2023-03-01T06:58:25;0.28;;;0.28;;
77204;SDS011;67992;46.618;18.850;2023-03-01T07:00:51;0.03;;;0.03;;
77204;SDS011;67992;46.618;18.850;2023-03-01T07:03:17;0.28;;;0.28;;
77204;SDS011;67992;46.618;18.850;2023-03-01T07:05:42;0.17;;;0.17;;
77204;SDS011;67992;46.618;18.850;2023-03-01T07:08:09;0.20;;;0.20;;
77204;SDS011;67992;46.618;18.850;2023-03-01T07:10:35;0.10;;;0.10;;
77204;SDS011;67992;46.618;18.850;2023-03-01T07:13:01;0.05;;;0.05;;
77204;SDS011;67992;46.618;18.850;2023-03-01T07:15:27;0.10;;;0.10;;
77204;SDS011;67992;46.618;18.850;2023-03-01T07:17:53;0.22;;;0.20;;
77204;SDS011;67992;46.618;18.850;2023-03-01T07:20:19;0.08;;;0.08;;
77204;SDS011;67992;46.618;18.850;2023-03-01T07:22:50;0.20;;;0.20;;
77204;SDS011;67992;46.618;18.850;2023-03-01T07:25:17;0.10;;;0.10;;
77204;SDS011;67992;46.618;18.850;2023-03-01T07:27:42;0.05;;;0.05;;
77204;SDS011;67992;46.618;18.850;2023-03-01T07:30:08;0.10;;;0.10;;
77204;SDS011;67992;46.618;18.850;2023-03-01T07:32:34;0.10;;;0.10;;
77204;SDS011;67992;46.618;18.850;2023-03-01T07:35:03;0.35;;;0.35;;
77204;SDS011;67992;46.618;18.850;2023-03-01T07:37:29;0.30;;;0.30;;
77204;SDS011;67992;46.618;18.850;2023-03-01T07:39:54;0.10;;;0.10;;
77204;SDS011;67992;46.618;18.850;2023-03-01T07:42:20;0.10;;;0.10;;
77204;SDS011;67992;46.618;18.850;2023-03-01T07:44:45;0.10;;;0.10;;
77204;SDS011;67992;46.618;18.850;2023-03-01T07:47:11;0.00;;;0.00;;
77204;SDS011;67992;46.618;18.850;2023-03-01T07:49:36;0.20;;;0.20;;
77204;SDS011;67992;46.618;18.850;2023-03-01T07:52:02;0.10;;;0.10;;
77204;SDS011;67992;46.618;18.850;2023-03-01T07:54:27;0.10;;;0.10;;
77204;SDS011;67992;46.618;18.850;2023-03-01T07:56:53;0.10;;;0.10;;
77204;SDS011;67992;46.618;18.850;2023-03-01T07:59:19;0.03;;;0.03;;
77204;SDS011;67992;46.618;18.850;2023-03-01T08:01:45;0.10;;;0.10;;
77204;SDS011;67992;46.618;18.850;2023-03-01T08:04:11;0.05;;;0.05;;
77204;SDS011;67992;46.618;18.850;2023-03-01T08:06:36;0.10;;;0.10;;
77204;SDS011;67992;46.618;18.850;2023-03-01T08:09:02;0.20;;;0.20;;
77204;SDS011;67992;46.618;18.850;2023-03-01T08:11:28;0.03;;;0.03;;
77204;SDS011;67992;46.618;18.850;2023-03-01T08:13:53;0.00;;;0.00;;
77204;SDS011;67992;46.618;18.850;2023-03-01T08:16:19;0.08;;;0.08;;
77204;SDS011;67992;46.618;18.850;2023-03-01T08:18:45;0.13;;;0.13;;
77204;SDS011;67992;46.618;18.850;2023-03-01T08:21:12;0.13;;;0.13;;
77204;SDS011;67992;46.618;18.850;2023-03-01T08:23:39;0.10;;;0.10;;
77204;SDS011;67992;46.618;18.850;2023-03-01T08:26:07;0.10;;;0.10;;
77204;SDS011;67992;46.618;18.850;2023-03-01T08:28:34;0.10;;;0.10;;
77204;SDS011;67992;46.618;18.850;2023-03-01T08:31:00;0.17;;;0.17;;
77204;SDS011;67992;46.618;18.850;2023-03-01T08:33:26;0.20;;;0.20;;
77204;SDS011;67992;46.618;18.850;2023-03-01T08:35:52;0.10;;;0.10;;
77204;SDS011;67992;46.618;18.850;2023-03-01T08:38:17;0.13;;;0.13;;
77204;SDS011;67992;46.618;18.850;2023-03-01T08:40:43;0.00;;;0.00;;
77204;SDS011;67992;46.618;18.850;2023-03-01T08:43:08;0.20;;;0.20;;
77204;SDS011;67992;46.618;18.850;2023-03-01T08:45:36;0.10;;;0.10;;
77204;SDS011;67992;46.618;18.850;2023-03-01T08:48:02;0.00;;;0.00;;
77204;SDS011;67992;46.618;18.850;2023-03-01T08:50:30;0.20;;;0.20;;
77204;SDS011;67992;46.618;18.850;2023-03-01T08:52:56;0.10;;;0.10;;
77204;SDS011;67992;46.618;18.850;2023-03-01T08:55:23;0.10;;;0.10;;
77204;SDS011;67992;46.618;18.850;2023-03-01T08:57:49;0.10;;;0.10;;
77204;SDS011;67992;46.618;18.850;2023-03-01T09:00:15;0.00;;;0.00;;
77204;SDS011;67992;46.618;18.850;2023-03-01T09:02:42;0.20;;;0.20;;
77204;SDS011;67992;46.618;18.850;2023-03-01T09:05:08;0.13;;;0.13;;
77204;SDS011;67992;46.618;18.850;2023-03-01T09:07:35;0.10;;;0.10;;
77204;SDS011;67992;46.618;18.850;2023-03-01T09:10:01;0.00;;;0.00;;
77204;SDS011;67992;46.618;18.850;2023-03-01T09:12:26;0.10;;;0.10;;
77204;SDS011;67992;46.618;18.850;2023-03-01T09:14:52;0.10;;;0.10;;
77204;SDS011;67992;46.618;18.850;2023-03-01T09:17:18;0.00;;;0.00;;
77204;SDS011;67992;46.618;18.850;2023-03-01T09:19:46;0.10;;;0.10;;
77204;SDS011;67992;46.618;18.850;2023-03-01T09:22:14;0.10;;;0.10;;
77204;SDS011;67992;46.618;18.850;2023-03-01T09:24:43;0.20;;;0.20;;
77204;SDS011;67992;46.618;18.850;2023-03-01T09:27:08;0.03;;;0.03;;
77204;SDS011;67992;46.618;18.850;2023-03-01T09:29:37;0.08;;;0.00;;
77204;SDS011;67992;46.618;18.850;2023-03-01T09:32:02;0.10;;;0.10;;
77204;SDS011;67992;46.618;18.850;2023-03-01T09:34:28;0.10;;;0.10;;
77204;SDS011;67992;46.618;18.850;2023-03-01T09:36:54;0.00;;;0.00;;
77204;SDS011;67992;46.618;18.850;2023-03-01T09:39:19;0.10;;;0.10;;
77204;SDS011;67992;46.618;18.850;2023-03-01T09:41:57;0.10;;;0.10;;
77204;SDS011;67992;46.618;18.850;2023-03-01T09:47:26;0.10;;;0.10;;
77204;SDS011;67992;46.618;18.850;2023-03-01T09:50:03;0.17;;;0.17;;
77204;SDS011;67992;46.618;18.850;2023-03-01T09:55:26;0.00;;;0.00;;
77204;SDS011;67992;46.618;18.850;2023-03-01T09:57:59;0.13;;;0.13;;
77204;SDS011;67992;46.618;18.850;2023-03-01T10:00:37;0.20;;;0.20;;
77204;SDS011;67992;46.618;18.850;2023-03-01T10:03:16;0.08;;;0.08;;
77204;SDS011;67992;46.618;18.850;2023-03-01T10:08:38;0.00;;;0.00;;
77204;SDS011;67992;46.618;18.850;2023-03-01T10:11:15;0.00;;;0.00;;
77204;SDS011;67992;46.618;18.850;2023-03-01T10:19:28;0.05;;;0.05;;
77204;SDS011;67992;46.618;18.850;2023-03-01T10:22:00;0.10;;;0.10;;
77204;SDS011;67992;46.618;18.850;2023-03-01T10:24:34;0.20;;;0.20;;
77204;SDS011;67992;46.618;18.850;2023-03-01T10:27:04;0.10;;;0.10;;
77204;SDS011;67992;46.618;18.850;2023-03-01T10:30:10;0.20;;;0.20;;
77204;SDS011;67992;46.618;18.850;2023-03-01T10:32:46;0.10;;;0.10;;
77204;SDS011;67992;46.618;18.850;2023-03-01T10:38:25;0.03;;;0.03;;
77204;SDS011;67992;46.618;18.850;2023-03-01T10:40:34;0.10;;;0.10;;
77204;SDS011;67992;46.618;18.850;2023-03-01T10:43:01;0.10;;;0.10;;
77204;SDS011;67992;46.618;18.850;2023-03-01T10:48:04;0.20;;;0.20;;
77204;SDS011;67992;46.618;18.850;2023-03-01T10:50:33;0.00;;;0.00;;
77204;SDS011;67992;46.618;18.850;2023-03-01T10:53:04;0.10;;;0.10;;
77204;SDS011;67992;46.618;18.850;2023-03-01T10:55:37;0.03;;;0.03;;
77204;SDS011;67992;46.618;18.850;2023-03-01T10:58:09;0.05;;;0.05;;
77204;SDS011;67992;46.618;18.850;2023-03-01T11:00:57;0.00;;;0.00;;
77204;SDS011;67992;46.618;18.850;2023-03-01T11:03:29;0.08;;;0.08;;
77204;SDS011;67992;46.618;18.850;2023-03-01T11:06:04;0.00;;;0.00;;
77204;SDS011;67992;46.618;18.850;2023-03-01T11:08:45;0.10;;;0.10;;
77204;SDS011;67992;46.618;18.850;2023-03-01T11:11:29;0.20;;;0.20;;
77204;SDS011;67992;46.618;18.850;2023-03-01T11:18:58;0.00;;;0.00;;
77204;SDS011;67992;46.618;18.850;2023-03-01T11:21:26;0.10;;;0.10;;
77204;SDS011;67992;46.618;18.850;2023-03-01T11:26:23;0.08;;;0.08;;
77204;SDS011;67992;46.618;18.850;2023-03-01T11:28:50;0.10;;;0.10;;
77204;SDS011;67992;46.618;18.850;2023-03-01T11:31:23;0.20;;;0.20;;
77204;SDS011;67992;46.618;18.850;2023-03-01T11:33:53;0.10;;;0.10;;
77204;SDS011;67992;46.618;18.850;2023-03-01T11:39:05;0.10;;;0.10;;
77204;SDS011;67992;46.618;18.850;2023-03-01T11:44:40;0.00;;;0.00;;
77204;SDS011;67992;46.618;18.850;2023-03-01T12:00:21;0.10;;;0.10;;
77204;SDS011;67992;46.618;18.850;2023-03-01T12:10:52;0.20;;;0.20;;
77204;SDS011;67992;46.618;18.850;2023-03-01T12:13:23;0.20;;;0.20;;
77204;SDS011;67992;46.618;18.850;2023-03-01T12:21:30;0.05;;;0.05;;
77204;SDS011;67992;46.618;18.850;2023-03-01T12:29:53;0.00;;;0.00;;
77204;SDS011;67992;46.618;18.850;2023-03-01T12:32:47;0.13;;;0.13;;
77204;SDS011;67992;46.618;18.850;2023-03-01T12:38:10;0.00;;;0.00;;
77204;SDS011;67992;46.618;18.850;2023-03-01T12:51:20;0.20;;;0.20;;
77204;SDS011;67992;46.618;18.850;2023-03-01T12:53:51;0.20;;;0.20;;
77204;SDS011;67992;46.618;18.850;2023-03-01T12:56:24;0.20;;;0.20;;
77204;SDS011;67992;46.618;18.850;2023-03-01T12:59:16;0.30;;;0.30;;
77204;SDS011;67992;46.618;18.850;2023-03-01T13:12:41;0.10;;;0.05;;
77204;SDS011;67992;46.618;18.850;2023-03-01T13:17:47;0.20;;;0.20;;
77204;SDS011;67992;46.618;18.850;2023-03-01T13:20:17;0.10;;;0.10;;
77204;SDS011;67992;46.618;18.850;2023-03-01T13:22:45;0.30;;;0.30;;
77204;SDS011;67992;46.618;18.850;2023-03-01T13:25:16;0.10;;;0.10;;
77204;SDS011;67992;46.618;18.850;2023-03-01T13:27:45;0.10;;;0.10;;
77204;SDS011;67992;46.618;18.850;2023-03-01T13:30:56;0.20;;;0.20;;
77204;SDS011;67992;46.618;18.850;2023-03-01T13:35:46;0.10;;;0.10;;
77204;SDS011;67992;46.618;18.850;2023-03-01T13:41:02;0.20;;;0.20;;
77204;SDS011;67992;46.618;18.850;2023-03-01T13:43:33;0.15;;;0.15;;
77204;SDS011;67992;46.618;18.850;2023-03-01T13:46:08;0.10;;;0.10;;
77204;SDS011;67992;46.618;18.850;2023-03-01T13:48:56;0.20;;;0.20;;
77204;SDS011;67992;46.618;18.850;2023-03-01T13:51:25;0.10;;;0.10;;
77204;SDS011;67992;46.618;18.850;2023-03-01T13:53:53;0.20;;;0.20;;
77204;SDS011;67992;46.618;18.850;2023-03-01T14:01:30;0.00;;;0.00;;
77204;SDS011;67992;46.618;18.850;2023-03-01T14:03:58;0.20;;;0.20;;
77204;SDS011;67992;46.618;18.850;2023-03-01T14:06:28;0.08;;;0.08;;
77204;SDS011;67992;46.618;18.850;2023-03-01T14:09:28;0.20;;;0.20;;
77204;SDS011;67992;46.618;18.850;2023-03-01T14:17:03;0.10;;;0.10;;
77204;SDS011;67992;46.618;18.850;2023-03-01T14:19:54;0.10;;;0.10;;
77204;SDS011;67992;46.618;18.850;2023-03-01T14:22:34;0.00;;;0.00;;
77204;SDS011;67992;46.618;18.850;2023-03-01T14:25:03;0.05;;;0.05;;
77204;SDS011;67992;46.618;18.850;2023-03-01T14:27:41;0.08;;;0.00;;
77204;SDS011;67992;46.618;18.850;2023-03-01T14:30:15;0.05;;;0.05;;
77204;SDS011;67992;46.618;18.850;2023-03-01T14:35:59;0.17;;;0.17;;
77204;SDS011;67992;46.618;18.850;2023-03-01T14:38:31;0.10;;;0.10;;
77204;SDS011;67992;46.618;18.850;2023-03-01T14:40:58;0.20;;;0.20;;
77204;SDS011;67992;46.618;18.850;2023-03-01T14:43:26;0.08;;;0.08;;
77204;SDS011;67992;46.618;18.850;2023-03-01T14:45:54;0.00;;;0.00;;
77204;SDS011;67992;46.618;18.850;2023-03-01T14:48:24;0.10;;;0.10;;
77204;SDS011;67992;46.618;18.850;2023-03-01T14:50:55;0.10;;;0.10;;
77204;SDS011;67992;46.618;18.850;2023-03-01T14:53:26;0.20;;;0.20;;
77204;SDS011;67992;46.618;18.850;2023-03-01T14:55:55;0.10;;;0.10;;
77204;SDS011;67992;46.618;18.850;2023-03-01T14:58:25;0.10;;;0.10;;
77204;SDS011;67992;46.618;18.850;2023-03-01T15:00:52;0.00;;;0.00;;
77204;SDS011;67992;46.618;18.850;2023-03-01T15:03:37;0.03;;;0.03;;
77204;SDS011;67992;46.618;18.850;2023-03-01T15:06:07;0.10;;;0.10;;
77204;SDS011;67992;46.618;18.850;2023-03-01T15:08:37;0.10;;;0.10;;
77204;SDS011;67992;46.618;18.850;2023-03-01T15:13:42;0.00;;;0.00;;
77204;SDS011;67992;46.618;18.850;2023-03-01T15:16:09;0.10;;;0.10;;
77204;SDS011;67992;46.618;18.850;2023-03-01T15:18:43;0.10;;;0.10;;
77204;SDS011;67992;46.618;18.850;2023-03-01T15:21:16;0.25;;;0.25;;
77204;SDS011;67992;46.618;18.850;2023-03-01T15:23:48;0.17;;;0.17;;
77204;SDS011;67992;46.618;18.850;2023-03-01T15:29:23;5.40;;;1.90;;
77204;SDS011;67992;46.618;18.850;2023-03-01T15:32:05;4.85;;;1.80;;
77204;SDS011;67992;46.618;18.850;2023-03-01T15:34:47;2.75;;;2.20;;
77204;SDS011;67992;46.618;18.850;2023-03-01T15:40:21;1.20;;;1.10;;
77204;SDS011;67992;46.618;18.850;2023-03-01T15:42:50;0.90;;;0.90;;
77204;SDS011;67992;46.618;18.850;2023-03-01T15:47:46;0.47;;;0.47;;
77204;SDS011;67992;46.618;18.850;2023-03-01T15:50:19;0.73;;;0.73;;
77204;SDS011;67992;46.618;18.850;2023-03-01T15:52:49;0.60;;;0.60;;
77204;SDS011;67992;46.618;18.850;2023-03-01T15:55:20;1.17;;;0.85;;
77204;SDS011;67992;46.618;18.850;2023-03-01T15:57:48;0.50;;;0.50;;
77204;SDS011;67992;46.618;18.850;2023-03-01T16:00:15;0.50;;;0.50;;
77204;SDS011;67992;46.618;18.850;2023-03-01T16:02:42;0.40;;;0.40;;
77204;SDS011;67992;46.618;18.850;2023-03-01T16:05:22;0.50;;;0.50;;
77204;SDS011;67992;46.618;18.850;2023-03-01T16:07:52;0.55;;;0.55;;
77204;SDS011;67992;46.618;18.850;2023-03-01T16:10:19;0.40;;;0.40;;
77204;SDS011;67992;46.618;18.850;2023-03-01T16:12:45;0.52;;;0.52;;
77204;SDS011;67992;46.618;18.850;2023-03-01T16:15:21;0.32;;;0.32;;
77204;SDS011;67992;46.618;18.850;2023-03-01T16:17:49;0.50;;;0.50;;
77204;SDS011;67992;46.618;18.850;2023-03-01T16:20:22;0.17;;;0.17;;
77204;SDS011;67992;46.618;18.850;2023-03-01T16:22:51;0.30;;;0.30;;
77204;SDS011;67992;46.618;18.850;2023-03-01T16:25:17;0.10;;;0.10;;
77204;SDS011;67992;46.618;18.850;2023-03-01T16:27:45;0.28;;;0.28;;
77204;SDS011;67992;46.618;18.850;2023-03-01T16:30:12;0.17;;;0.17;;
77204;SDS011;67992;46.618;18.850;2023-03-01T16:32:45;1.35;;;1.00;;
77204;SDS011;67992;46.618;18.850;2023-03-01T16:35:13;0.70;;;0.70;;
77204;SDS011;67992;46.618;18.850;2023-03-01T16:37:42;0.50;;;0.50;;
77204;SDS011;67992;46.618;18.850;2023-03-01T16:40:19;0.50;;;0.50;;
77204;SDS011;67992;46.618;18.850;2023-03-01T16:42:52;0.47;;;0.47;;
77204;SDS011;67992;46.618;18.850;2023-03-01T16:45:19;0.45;;;0.45;;
77204;SDS011;67992;46.618;18.850;2023-03-01T16:47:44;0.30;;;0.30;;
77204;SDS011;67992;46.618;18.850;2023-03-01T16:50:10;0.35;;;0.35;;
77204;SDS011;67992;46.618;18.850;2023-03-01T16:52:36;0.52;;;0.52;;
77204;SDS011;67992;46.618;18.850;2023-03-01T16:55:02;0.38;;;0.38;;
77204;SDS011;67992;46.618;18.850;2023-03-01T16:57:29;0.45;;;0.45;;
77204;SDS011;67992;46.618;18.850;2023-03-01T16:59:55;0.25;;;0.25;;